sensor_id;sensor_type;location;lat;lon;timestamp;P1;durP1;ratioP1;P2;durP2;ratioP2
10166;SDS011;62970;53.130;8.244;2024-03-29T00:02:25;1.73;;;1.40;;
10166;SDS011;62970;53.130;8.244;2024-03-29T00:04:51;1.27;;;1.17;;
10166;SDS011;62970;53.130;8.244;2024-03-29T00:07:18;2.23;;;1.40;;
10166;SDS011;62970;53.130;8.244;2024-03-29T00:09:44;2.43;;;1.30;;
10166;SDS011;62970;53.130;8.244;2024-03-29T00:12:13;1.93;;;1.20;;
10166;SDS011;62970;53.130;8.244;2024-03-29T00:14:39;4.00;;;1.60;;
10166;SDS011;62970;53.130;8.244;2024-03-29T00:17:06;2.07;;;1.50;;
10166;SDS011;62970;53.130;8.244;2024-03-29T00:19:32;1.37;;;1.17;;
10166;SDS011;62970;53.130;8.244;2024-03-29T00:21:59;1.37;;;1.27;;
10166;SDS011;62970;53.130;8.244;2024-03-29T00:24:25;3.20;;;1.33;;
10166;SDS011;62970;53.130;8.244;2024-03-29T00:26:51;1.87;;;1.43;;
10166;SDS011;62970;53.130;8.244;2024-03-29T00:29:21;1.73;;;1.20;;
10166;SDS011;62970;53.130;8.244;2024-03-29T00:31:47;1.97;;;1.30;;
10166;SDS011;62970;53.130;8.244;2024-03-29T00:34:13;2.50;;;1.30;;
10166;SDS011;62970;53.130;8.244;2024-03-29T00:36:40;2.50;;;1.20;;
10166;SDS011;62970;53.130;8.244;2024-03-29T00:39:06;3.17;;;1.40;;
10166;SDS011;62970;53.130;8.244;2024-03-29T00:41:32;1.50;;;1.10;;
10166;SDS011;62970;53.130;8.244;2024-03-29T00:43:59;2.73;;;1.47;;
10166;SDS011;62970;53.130;8.244;2024-03-29T00:46:28;2.00;;;1.07;;
10166;SDS011;62970;53.130;8.244;2024-03-29T00:48:54;3.17;;;1.20;;
10166;SDS011;62970;53.130;8.244;2024-03-29T00:51:21;1.43;;;0.90;;
10166;SDS011;62970;53.130;8.244;2024-03-29T00:53:47;3.03;;;1.23;;
10166;SDS011;62970;53.130;8.244;2024-03-29T00:56:14;2.17;;;1.20;;
10166;SDS011;62970;53.130;8.244;2024-03-29T00:58:41;3.37;;;1.43;;
10166;SDS011;62970;53.130;8.244;2024-03-29T01:01:07;2.10;;;1.27;;
10166;SDS011;62970;53.130;8.244;2024-03-29T01:03:36;2.83;;;1.33;;
10166;SDS011;62970;53.130;8.244;2024-03-29T01:06:03;2.17;;;1.10;;
10166;SDS011;62970;53.130;8.244;2024-03-29T01:08:30;2.40;;;1.27;;
10166;SDS011;62970;53.130;8.244;2024-03-29T01:10:56;1.50;;;1.20;;
10166;SDS011;62970;53.130;8.244;2024-03-29T01:13:22;1.20;;;1.10;;
10166;SDS011;62970;53.130;8.244;2024-03-29T01:15:49;2.10;;;1.10;;
10166;SDS011;62970;53.130;8.244;2024-03-29T01:18:15;1.67;;;1.13;;
10166;SDS011;62970;53.130;8.244;2024-03-29T01:20:44;1.20;;;1.10;;
10166;SDS011;62970;53.130;8.244;2024-03-29T01:23:11;2.73;;;1.33;;
10166;SDS011;62970;53.130;8.244;2024-03-29T01:25:37;3.40;;;1.30;;
10166;SDS011;62970;53.130;8.244;2024-03-29T01:28:04;2.50;;;1.23;;
10166;SDS011;62970;53.130;8.244;2024-03-29T01:30:31;2.53;;;1.27;;
10166;SDS011;62970;53.130;8.244;2024-03-29T01:32:57;1.60;;;1.20;;
10166;SDS011;62970;53.130;8.244;2024-03-29T01:35:23;1.77;;;1.27;;
10166;SDS011;62970;53.130;8.244;2024-03-29T01:37:53;1.77;;;1.20;;
10166;SDS011;62970;53.130;8.244;2024-03-29T01:40:19;1.33;;;1.10;;
10166;SDS011;62970;53.130;8.244;2024-03-29T01:42:45;2.93;;;1.20;;
10166;SDS011;62970;53.130;8.244;2024-03-29T01:45:12;2.27;;;1.20;;
10166;SDS011;62970;53.130;8.244;2024-03-29T01:47:38;2.43;;;1.60;;
10166;SDS011;62970;53.130;8.244;2024-03-29T01:50:05;2.20;;;1.20;;
10166;SDS011;62970;53.130;8.244;2024-03-29T01:52:33;2.57;;;1.37;;
10166;SDS011;62970;53.130;8.244;2024-03-29T01:55:02;2.70;;;1.10;;
10166;SDS011;62970;53.130;8.244;2024-03-29T01:57:30;2.50;;;1.20;;
10166;SDS011;62970;53.130;8.244;2024-03-29T01:59:56;2.43;;;1.27;;
10166;SDS011;62970;53.130;8.244;2024-03-29T02:02:23;1.07;;;0.90;;
10166;SDS011;62970;53.130;8.244;2024-03-29T02:04:50;2.07;;;1.40;;
10166;SDS011;62970;53.130;8.244;2024-03-29T02:07:16;1.53;;;1.10;;
10166;SDS011;62970;53.130;8.244;2024-03-29T02:09:43;1.60;;;1.00;;
10166;SDS011;62970;53.130;8.244;2024-03-29T02:12:12;2.70;;;1.30;;
10166;SDS011;62970;53.130;8.244;2024-03-29T02:14:39;3.03;;;1.10;;
10166;SDS011;62970;53.130;8.244;2024-03-29T02:17:05;2.07;;;1.10;;
10166;SDS011;62970;53.130;8.244;2024-03-29T02:19:31;1.60;;;1.00;;
10166;SDS011;62970;53.130;8.244;2024-03-29T02:21:59;2.40;;;1.30;;
10166;SDS011;62970;53.130;8.244;2024-03-29T02:24:29;2.87;;;1.30;;
10166;SDS011;62970;53.130;8.244;2024-03-29T02:26:56;2.07;;;1.03;;
10166;SDS011;62970;53.130;8.244;2024-03-29T02:29:22;2.27;;;1.10;;
10166;SDS011;62970;53.130;8.244;2024-03-29T02:31:49;2.47;;;1.10;;
10166;SDS011;62970;53.130;8.244;2024-03-29T02:34:16;1.13;;;0.83;;
10166;SDS011;62970;53.130;8.244;2024-03-29T02:36:42;4.23;;;1.30;;
10166;SDS011;62970;53.130;8.244;2024-03-29T02:39:09;3.03;;;1.57;;
10166;SDS011;62970;53.130;8.244;2024-03-29T02:41:38;3.60;;;1.10;;
10166;SDS011;62970;53.130;8.244;2024-03-29T02:44:04;2.70;;;1.10;;
10166;SDS011;62970;53.130;8.244;2024-03-29T02:46:31;1.53;;;0.87;;
10166;SDS011;62970;53.130;8.244;2024-03-29T02:48:57;1.43;;;0.90;;
10166;SDS011;62970;53.130;8.244;2024-03-29T02:51:23;2.70;;;1.13;;
10166;SDS011;62970;53.130;8.244;2024-03-29T02:53:50;1.97;;;1.00;;
10166;SDS011;62970;53.130;8.244;2024-03-29T02:56:16;2.77;;;1.10;;
10166;SDS011;62970;53.130;8.244;2024-03-29T02:58:46;2.70;;;1.10;;
10166;SDS011;62970;53.130;8.244;2024-03-29T03:01:13;2.07;;;1.07;;
10166;SDS011;62970;53.130;8.244;2024-03-29T03:03:39;3.43;;;1.30;;
10166;SDS011;62970;53.130;8.244;2024-03-29T03:06:06;3.10;;;1.37;;
10166;SDS011;62970;53.130;8.244;2024-03-29T03:08:32;2.17;;;0.93;;
10166;SDS011;62970;53.130;8.244;2024-03-29T03:11:14;1.67;;;1.10;;
10166;SDS011;62970;53.130;8.244;2024-03-29T03:13:40;1.27;;;0.87;;
10166;SDS011;62970;53.130;8.244;2024-03-29T03:16:09;1.83;;;1.00;;
10166;SDS011;62970;53.130;8.244;2024-03-29T03:18:36;2.40;;;1.00;;
10166;SDS011;62970;53.130;8.244;2024-03-29T03:21:02;2.97;;;1.03;;
10166;SDS011;62970;53.130;8.244;2024-03-29T03:23:29;1.73;;;1.10;;
10166;SDS011;62970;53.130;8.244;2024-03-29T03:25:56;2.80;;;0.90;;
10166;SDS011;62970;53.130;8.244;2024-03-29T03:28:23;2.33;;;0.90;;
10166;SDS011;62970;53.130;8.244;2024-03-29T03:30:52;1.80;;;1.00;;
10166;SDS011;62970;53.130;8.244;2024-03-29T03:33:21;2.83;;;1.37;;
10166;SDS011;62970;53.130;8.244;2024-03-29T03:35:48;1.33;;;0.80;;
10166;SDS011;62970;53.130;8.244;2024-03-29T03:38:15;2.60;;;1.20;;
10166;SDS011;62970;53.130;8.244;2024-03-29T03:40:41;1.97;;;1.00;;
10166;SDS011;62970;53.130;8.244;2024-03-29T03:43:08;2.53;;;0.90;;
10166;SDS011;62970;53.130;8.244;2024-03-29T03:45:35;2.37;;;1.23;;
10166;SDS011;62970;53.130;8.244;2024-03-29T03:48:02;4.53;;;1.60;;
10166;SDS011;62970;53.130;8.244;2024-03-29T03:50:33;2.60;;;1.17;;
10166;SDS011;62970;53.130;8.244;2024-03-29T03:52:59;2.30;;;1.10;;
10166;SDS011;62970;53.130;8.244;2024-03-29T03:55:26;2.43;;;1.00;;
10166;SDS011;62970;53.130;8.244;2024-03-29T03:57:53;4.50;;;0.93;;
10166;SDS011;62970;53.130;8.244;2024-03-29T04:00:20;2.07;;;0.97;;
10166;SDS011;62970;53.130;8.244;2024-03-29T04:02:47;1.37;;;1.00;;
10166;SDS011;62970;53.130;8.244;2024-03-29T04:05:15;2.43;;;0.83;;
10166;SDS011;62970;53.130;8.244;2024-03-29T04:07:45;1.83;;;1.00;;
10166;SDS011;62970;53.130;8.244;2024-03-29T04:10:12;2.77;;;1.07;;
10166;SDS011;62970;53.130;8.244;2024-03-29T04:12:39;4.40;;;1.43;;
10166;SDS011;62970;53.130;8.244;2024-03-29T04:15:05;2.17;;;0.90;;
10166;SDS011;62970;53.130;8.244;2024-03-29T04:17:33;2.07;;;1.00;;
10166;SDS011;62970;53.130;8.244;2024-03-29T04:20:00;2.83;;;1.00;;
10166;SDS011;62970;53.130;8.244;2024-03-29T04:22:27;2.03;;;1.00;;
10166;SDS011;62970;53.130;8.244;2024-03-29T04:24:56;1.10;;;0.80;;
10166;SDS011;62970;53.130;8.244;2024-03-29T04:27:23;2.00;;;1.07;;
10166;SDS011;62970;53.130;8.244;2024-03-29T04:29:51;2.13;;;1.00;;
10166;SDS011;62970;53.130;8.244;2024-03-29T04:32:17;2.20;;;1.00;;
10166;SDS011;62970;53.130;8.244;2024-03-29T04:34:46;2.77;;;1.40;;
10166;SDS011;62970;53.130;8.244;2024-03-29T04:37:13;1.33;;;0.90;;
10166;SDS011;62970;53.130;8.244;2024-03-29T04:39:40;1.90;;;1.13;;
10166;SDS011;62970;53.130;8.244;2024-03-29T04:42:10;2.00;;;1.23;;
10166;SDS011;62970;53.130;8.244;2024-03-29T04:44:37;3.60;;;1.10;;
10166;SDS011;62970;53.130;8.244;2024-03-29T04:47:04;2.97;;;0.93;;
10166;SDS011;62970;53.130;8.244;2024-03-29T04:49:30;2.80;;;1.10;;
10166;SDS011;62970;53.130;8.244;2024-03-29T04:51:58;2.83;;;1.10;;
10166;SDS011;62970;53.130;8.244;2024-03-29T04:54:25;2.83;;;1.07;;
10166;SDS011;62970;53.130;8.244;2024-03-29T04:56:51;1.77;;;0.90;;
10166;SDS011;62970;53.130;8.244;2024-03-29T04:59:21;1.70;;;0.93;;
10166;SDS011;62970;53.130;8.244;2024-03-29T05:01:47;1.87;;;0.87;;
10166;SDS011;62970;53.130;8.244;2024-03-29T05:04:14;2.60;;;1.10;;
10166;SDS011;62970;53.130;8.244;2024-03-29T05:06:41;1.73;;;1.00;;
10166;SDS011;62970;53.130;8.244;2024-03-29T05:09:08;2.20;;;1.20;;
10166;SDS011;62970;53.130;8.244;2024-03-29T05:11:34;1.83;;;1.00;;
10166;SDS011;62970;53.130;8.244;2024-03-29T05:14:01;1.20;;;0.70;;
10166;SDS011;62970;53.130;8.244;2024-03-29T05:16:30;2.70;;;0.93;;
10166;SDS011;62970;53.130;8.244;2024-03-29T05:18:57;1.87;;;1.00;;
10166;SDS011;62970;53.130;8.244;2024-03-29T05:21:23;2.33;;;1.20;;
10166;SDS011;62970;53.130;8.244;2024-03-29T05:23:49;1.00;;;1.00;;
10166;SDS011;62970;53.130;8.244;2024-03-29T05:26:16;1.30;;;0.90;;
10166;SDS011;62970;53.130;8.244;2024-03-29T05:28:43;2.47;;;1.20;;
10166;SDS011;62970;53.130;8.244;2024-03-29T05:31:11;2.60;;;0.90;;
10166;SDS011;62970;53.130;8.244;2024-03-29T05:33:42;2.73;;;1.20;;
10166;SDS011;62970;53.130;8.244;2024-03-29T05:36:09;2.80;;;1.17;;
10166;SDS011;62970;53.130;8.244;2024-03-29T05:38:35;2.07;;;1.00;;
10166;SDS011;62970;53.130;8.244;2024-03-29T05:41:02;2.40;;;1.20;;
10166;SDS011;62970;53.130;8.244;2024-03-29T05:43:29;2.50;;;1.00;;
10166;SDS011;62970;53.130;8.244;2024-03-29T05:45:55;2.40;;;1.13;;
10166;SDS011;62970;53.130;8.244;2024-03-29T05:48:22;2.20;;;1.10;;
10166;SDS011;62970;53.130;8.244;2024-03-29T05:50:51;1.97;;;0.90;;
10166;SDS011;62970;53.130;8.244;2024-03-29T05:53:18;0.80;;;0.70;;
10166;SDS011;62970;53.130;8.244;2024-03-29T05:55:45;2.17;;;1.00;;
10166;SDS011;62970;53.130;8.244;2024-03-29T05:58:11;2.40;;;0.97;;
10166;SDS011;62970;53.130;8.244;2024-03-29T06:00:38;3.23;;;1.13;;
10166;SDS011;62970;53.130;8.244;2024-03-29T06:03:05;1.50;;;1.00;;
10166;SDS011;62970;53.130;8.244;2024-03-29T06:05:34;4.63;;;0.90;;
10166;SDS011;62970;53.130;8.244;2024-03-29T06:08:04;3.23;;;1.20;;
10166;SDS011;62970;53.130;8.244;2024-03-29T06:10:31;1.87;;;0.90;;
10166;SDS011;62970;53.130;8.244;2024-03-29T06:12:57;1.20;;;0.90;;
10166;SDS011;62970;53.130;8.244;2024-03-29T06:15:24;3.53;;;0.90;;
10166;SDS011;62970;53.130;8.244;2024-03-29T06:18:06;1.27;;;1.00;;
10166;SDS011;62970;53.130;8.244;2024-03-29T06:20:33;1.53;;;0.90;;
10166;SDS011;62970;53.130;8.244;2024-03-29T06:22:59;2.10;;;0.97;;
10166;SDS011;62970;53.130;8.244;2024-03-29T06:25:28;2.23;;;1.00;;
10166;SDS011;62970;53.130;8.244;2024-03-29T06:27:55;2.03;;;0.90;;
10166;SDS011;62970;53.130;8.244;2024-03-29T06:30:21;1.20;;;1.00;;
10166;SDS011;62970;53.130;8.244;2024-03-29T06:32:51;1.93;;;1.10;;
10166;SDS011;62970;53.130;8.244;2024-03-29T06:35:17;1.87;;;1.00;;
10166;SDS011;62970;53.130;8.244;2024-03-29T06:37:44;1.10;;;0.80;;
10166;SDS011;62970;53.130;8.244;2024-03-29T06:40:10;2.50;;;0.90;;
10166;SDS011;62970;53.130;8.244;2024-03-29T06:42:39;2.73;;;1.30;;
10166;SDS011;62970;53.130;8.244;2024-03-29T06:45:06;2.97;;;1.30;;
10166;SDS011;62970;53.130;8.244;2024-03-29T06:47:37;2.23;;;1.00;;
10166;SDS011;62970;53.130;8.244;2024-03-29T06:50:03;1.07;;;0.80;;
10166;SDS011;62970;53.130;8.244;2024-03-29T06:52:31;1.67;;;1.00;;
10166;SDS011;62970;53.130;8.244;2024-03-29T06:54:57;3.40;;;1.10;;
10166;SDS011;62970;53.130;8.244;2024-03-29T06:57:24;2.00;;;1.00;;
10166;SDS011;62970;53.130;8.244;2024-03-29T06:59:53;1.70;;;1.00;;
10166;SDS011;62970;53.130;8.244;2024-03-29T07:02:19;1.17;;;0.90;;
10166;SDS011;62970;53.130;8.244;2024-03-29T07:04:46;2.30;;;1.40;;
10166;SDS011;62970;53.130;8.244;2024-03-29T07:07:12;2.50;;;1.33;;
10166;SDS011;62970;53.130;8.244;2024-03-29T07:09:38;2.20;;;1.33;;
10166;SDS011;62970;53.130;8.244;2024-03-29T07:12:05;0.90;;;0.80;;
10166;SDS011;62970;53.130;8.244;2024-03-29T07:14:31;1.83;;;1.00;;
10166;SDS011;62970;53.130;8.244;2024-03-29T07:17:00;2.40;;;1.10;;
10166;SDS011;62970;53.130;8.244;2024-03-29T07:19:27;1.97;;;1.10;;
10166;SDS011;62970;53.130;8.244;2024-03-29T07:21:53;1.43;;;1.00;;
10166;SDS011;62970;53.130;8.244;2024-03-29T07:24:20;3.17;;;1.00;;
10166;SDS011;62970;53.130;8.244;2024-03-29T07:26:46;2.70;;;1.03;;
10166;SDS011;62970;53.130;8.244;2024-03-29T07:29:12;3.10;;;0.90;;
10166;SDS011;62970;53.130;8.244;2024-03-29T07:31:39;1.80;;;1.10;;
10166;SDS011;62970;53.130;8.244;2024-03-29T07:34:08;1.57;;;1.10;;
10166;SDS011;62970;53.130;8.244;2024-03-29T07:36:35;1.63;;;1.07;;
10166;SDS011;62970;53.130;8.244;2024-03-29T07:39:01;1.57;;;1.00;;
10166;SDS011;62970;53.130;8.244;2024-03-29T07:41:29;1.40;;;0.80;;
10166;SDS011;62970;53.130;8.244;2024-03-29T07:43:56;1.50;;;0.80;;
10166;SDS011;62970;53.130;8.244;2024-03-29T07:46:27;1.10;;;0.90;;
10166;SDS011;62970;53.130;8.244;2024-03-29T07:48:54;1.30;;;1.07;;
10166;SDS011;62970;53.130;8.244;2024-03-29T07:51:23;2.73;;;1.20;;
10166;SDS011;62970;53.130;8.244;2024-03-29T07:53:50;1.33;;;0.93;;
10166;SDS011;62970;53.130;8.244;2024-03-29T07:56:17;1.50;;;1.00;;
10166;SDS011;62970;53.130;8.244;2024-03-29T07:58:44;3.60;;;1.10;;
10166;SDS011;62970;53.130;8.244;2024-03-29T08:01:17;1.47;;;1.00;;
10166;SDS011;62970;53.130;8.244;2024-03-29T08:03:44;1.53;;;1.00;;
10166;SDS011;62970;53.130;8.244;2024-03-29T08:06:11;1.67;;;1.20;;
10166;SDS011;62970;53.130;8.244;2024-03-29T08:08:40;1.83;;;1.10;;
10166;SDS011;62970;53.130;8.244;2024-03-29T08:11:07;2.23;;;1.00;;
10166;SDS011;62970;53.130;8.244;2024-03-29T08:13:35;1.70;;;1.10;;
10166;SDS011;62970;53.130;8.244;2024-03-29T08:16:01;1.60;;;1.10;;
10166;SDS011;62970;53.130;8.244;2024-03-29T08:18:29;2.57;;;1.30;;
10166;SDS011;62970;53.130;8.244;2024-03-29T08:20:57;6.07;;;3.57;;
10166;SDS011;62970;53.130;8.244;2024-03-29T08:23:24;2.47;;;2.10;;
10166;SDS011;62970;53.130;8.244;2024-03-29T08:25:53;3.10;;;2.20;;
10166;SDS011;62970;53.130;8.244;2024-03-29T08:28:19;2.30;;;1.83;;
10166;SDS011;62970;53.130;8.244;2024-03-29T08:30:46;2.33;;;1.37;;
10166;SDS011;62970;53.130;8.244;2024-03-29T08:33:23;1.57;;;1.30;;
10166;SDS011;62970;53.130;8.244;2024-03-29T08:35:49;2.10;;;1.60;;
10166;SDS011;62970;53.130;8.244;2024-03-29T08:38:16;3.27;;;1.60;;
10166;SDS011;62970;53.130;8.244;2024-03-29T08:40:42;2.53;;;1.40;;
10166;SDS011;62970;53.130;8.244;2024-03-29T08:43:11;1.77;;;1.40;;
10166;SDS011;62970;53.130;8.244;2024-03-29T08:45:38;2.13;;;1.30;;
10166;SDS011;62970;53.130;8.244;2024-03-29T08:48:05;1.87;;;1.37;;
10166;SDS011;62970;53.130;8.244;2024-03-29T08:50:32;1.80;;;1.40;;
10166;SDS011;62970;53.130;8.244;2024-03-29T08:52:58;1.50;;;1.20;;
10166;SDS011;62970;53.130;8.244;2024-03-29T08:55:25;3.13;;;1.40;;
10166;SDS011;62970;53.130;8.244;2024-03-29T08:57:51;2.87;;;1.67;;
10166;SDS011;62970;53.130;8.244;2024-03-29T09:00:20;1.53;;;1.20;;
10166;SDS011;62970;53.130;8.244;2024-03-29T09:02:47;1.53;;;1.30;;
10166;SDS011;62970;53.130;8.244;2024-03-29T09:05:13;2.20;;;1.60;;
10166;SDS011;62970;53.130;8.244;2024-03-29T09:07:40;2.67;;;1.70;;
10166;SDS011;62970;53.130;8.244;2024-03-29T09:10:07;1.90;;;1.10;;
10166;SDS011;62970;53.130;8.244;2024-03-29T09:12:34;1.27;;;1.17;;
10166;SDS011;62970;53.130;8.244;2024-03-29T09:15:00;4.03;;;1.20;;
10166;SDS011;62970;53.130;8.244;2024-03-29T09:17:29;1.97;;;1.63;;
10166;SDS011;62970;53.130;8.244;2024-03-29T09:19:56;1.90;;;1.50;;
10166;SDS011;62970;53.130;8.244;2024-03-29T09:22:22;2.37;;;1.53;;
10166;SDS011;62970;53.130;8.244;2024-03-29T09:24:49;4.20;;;1.97;;
10166;SDS011;62970;53.130;8.244;2024-03-29T09:27:16;2.10;;;1.90;;
10166;SDS011;62970;53.130;8.244;2024-03-29T09:29:42;2.07;;;1.27;;
10166;SDS011;62970;53.130;8.244;2024-03-29T09:32:12;1.70;;;1.40;;
10166;SDS011;62970;53.130;8.244;2024-03-29T09:34:56;2.80;;;1.40;;
10166;SDS011;62970;53.130;8.244;2024-03-29T09:37:23;1.63;;;1.43;;
10166;SDS011;62970;53.130;8.244;2024-03-29T09:39:49;4.40;;;1.50;;
10166;SDS011;62970;53.130;8.244;2024-03-29T09:42:16;1.93;;;1.50;;
10166;SDS011;62970;53.130;8.244;2024-03-29T09:44:44;1.50;;;1.40;;
10166;SDS011;62970;53.130;8.244;2024-03-29T09:47:13;2.10;;;1.20;;
10166;SDS011;62970;53.130;8.244;2024-03-29T09:49:42;1.63;;;1.20;;
10166;SDS011;62970;53.130;8.244;2024-03-29T09:52:14;2.67;;;1.30;;
10166;SDS011;62970;53.130;8.244;2024-03-29T09:54:41;1.83;;;1.43;;
10166;SDS011;62970;53.130;8.244;2024-03-29T09:57:08;1.70;;;1.43;;
10166;SDS011;62970;53.130;8.244;2024-03-29T09:59:37;1.70;;;1.20;;
10166;SDS011;62970;53.130;8.244;2024-03-29T10:02:04;2.40;;;1.50;;
10166;SDS011;62970;53.130;8.244;2024-03-29T10:04:39;1.30;;;1.20;;
10166;SDS011;62970;53.130;8.244;2024-03-29T10:07:07;1.63;;;1.20;;
10166;SDS011;62970;53.130;8.244;2024-03-29T10:09:37;1.30;;;1.20;;
10166;SDS011;62970;53.130;8.244;2024-03-29T10:12:05;1.67;;;1.10;;
10166;SDS011;62970;53.130;8.244;2024-03-29T10:14:42;1.27;;;1.20;;
10166;SDS011;62970;53.130;8.244;2024-03-29T10:17:09;1.70;;;1.27;;
10166;SDS011;62970;53.130;8.244;2024-03-29T10:19:36;2.53;;;1.27;;
10166;SDS011;62970;53.130;8.244;2024-03-29T10:22:05;1.47;;;1.20;;
10166;SDS011;62970;53.130;8.244;2024-03-29T10:24:33;1.67;;;1.50;;
10166;SDS011;62970;53.130;8.244;2024-03-29T10:27:02;1.77;;;1.40;;
10166;SDS011;62970;53.130;8.244;2024-03-29T10:29:29;2.80;;;1.60;;
10166;SDS011;62970;53.130;8.244;2024-03-29T10:31:56;2.30;;;1.23;;
10166;SDS011;62970;53.130;8.244;2024-03-29T10:34:24;3.03;;;1.77;;
10166;SDS011;62970;53.130;8.244;2024-03-29T10:36:50;2.77;;;1.60;;
10166;SDS011;62970;53.130;8.244;2024-03-29T10:39:17;1.70;;;1.60;;
10166;SDS011;62970;53.130;8.244;2024-03-29T10:41:46;1.50;;;1.40;;
10166;SDS011;62970;53.130;8.244;2024-03-29T10:44:18;2.43;;;1.43;;
10166;SDS011;62970;53.130;8.244;2024-03-29T10:47:01;2.20;;;1.50;;
10166;SDS011;62970;53.130;8.244;2024-03-29T10:49:29;2.47;;;1.43;;
10166;SDS011;62970;53.130;8.244;2024-03-29T10:51:58;2.33;;;1.43;;
10166;SDS011;62970;53.130;8.244;2024-03-29T10:54:25;2.13;;;1.40;;
10166;SDS011;62970;53.130;8.244;2024-03-29T10:56:54;3.20;;;1.43;;
10166;SDS011;62970;53.130;8.244;2024-03-29T10:59:34;1.93;;;1.47;;
10166;SDS011;62970;53.130;8.244;2024-03-29T11:02:13;2.40;;;1.40;;
10166;SDS011;62970;53.130;8.244;2024-03-29T11:04:52;2.70;;;1.30;;
10166;SDS011;62970;53.130;8.244;2024-03-29T11:07:20;4.13;;;1.40;;
10166;SDS011;62970;53.130;8.244;2024-03-29T11:09:48;2.10;;;1.40;;
10166;SDS011;62970;53.130;8.244;2024-03-29T11:12:21;1.93;;;1.60;;
10166;SDS011;62970;53.130;8.244;2024-03-29T11:14:53;3.57;;;1.53;;
10166;SDS011;62970;53.130;8.244;2024-03-29T11:17:28;1.63;;;1.40;;
10166;SDS011;62970;53.130;8.244;2024-03-29T11:19:55;1.73;;;1.50;;
10166;SDS011;62970;53.130;8.244;2024-03-29T11:22:22;2.20;;;1.50;;
10166;SDS011;62970;53.130;8.244;2024-03-29T11:24:50;1.83;;;1.50;;
10166;SDS011;62970;53.130;8.244;2024-03-29T11:27:16;1.60;;;1.50;;
10166;SDS011;62970;53.130;8.244;2024-03-29T11:29:47;2.23;;;1.63;;
10166;SDS011;62970;53.130;8.244;2024-03-29T11:32:17;2.13;;;1.67;;
10166;SDS011;62970;53.130;8.244;2024-03-29T11:35:03;1.40;;;1.30;;
10166;SDS011;62970;53.130;8.244;2024-03-29T11:37:30;2.23;;;1.53;;
10166;SDS011;62970;53.130;8.244;2024-03-29T11:39:58;1.40;;;1.23;;
10166;SDS011;62970;53.130;8.244;2024-03-29T11:42:35;1.93;;;1.40;;
10166;SDS011;62970;53.130;8.244;2024-03-29T11:45:03;2.90;;;1.50;;
10166;SDS011;62970;53.130;8.244;2024-03-29T11:47:34;2.90;;;1.40;;
10166;SDS011;62970;53.130;8.244;2024-03-29T11:50:03;1.90;;;1.30;;
10166;SDS011;62970;53.130;8.244;2024-03-29T11:52:31;2.63;;;1.50;;
10166;SDS011;62970;53.130;8.244;2024-03-29T11:54:58;1.83;;;1.27;;
10166;SDS011;62970;53.130;8.244;2024-03-29T11:57:24;1.60;;;1.50;;
10166;SDS011;62970;53.130;8.244;2024-03-29T11:59:51;1.57;;;1.27;;
10166;SDS011;62970;53.130;8.244;2024-03-29T12:02:17;1.90;;;1.40;;
10166;SDS011;62970;53.130;8.244;2024-03-29T12:04:47;1.40;;;1.30;;
10166;SDS011;62970;53.130;8.244;2024-03-29T12:07:14;1.77;;;1.20;;
10166;SDS011;62970;53.130;8.244;2024-03-29T12:09:41;2.37;;;1.40;;
10166;SDS011;62970;53.130;8.244;2024-03-29T12:12:08;1.97;;;1.50;;
10166;SDS011;62970;53.130;8.244;2024-03-29T12:14:35;2.97;;;1.30;;
10166;SDS011;62970;53.130;8.244;2024-03-29T12:17:01;2.87;;;1.50;;
10166;SDS011;62970;53.130;8.244;2024-03-29T12:19:34;1.50;;;1.40;;
10166;SDS011;62970;53.130;8.244;2024-03-29T12:22:03;1.43;;;1.10;;
10166;SDS011;62970;53.130;8.244;2024-03-29T12:24:30;1.40;;;1.30;;
10166;SDS011;62970;53.130;8.244;2024-03-29T12:26:57;1.50;;;1.40;;
10166;SDS011;62970;53.130;8.244;2024-03-29T12:29:24;1.40;;;1.30;;
10166;SDS011;62970;53.130;8.244;2024-03-29T12:31:55;1.80;;;1.33;;
10166;SDS011;62970;53.130;8.244;2024-03-29T12:34:24;2.50;;;1.63;;
10166;SDS011;62970;53.130;8.244;2024-03-29T12:36:51;2.57;;;1.50;;
10166;SDS011;62970;53.130;8.244;2024-03-29T12:39:21;1.87;;;1.40;;
10166;SDS011;62970;53.130;8.244;2024-03-29T12:41:48;1.77;;;1.50;;
10166;SDS011;62970;53.130;8.244;2024-03-29T12:44:15;1.90;;;1.43;;
10166;SDS011;62970;53.130;8.244;2024-03-29T12:46:41;1.50;;;1.30;;
10166;SDS011;62970;53.130;8.244;2024-03-29T12:49:10;1.30;;;1.20;;
10166;SDS011;62970;53.130;8.244;2024-03-29T12:51:37;1.47;;;1.37;;
10166;SDS011;62970;53.130;8.244;2024-03-29T12:54:06;1.60;;;1.50;;
10166;SDS011;62970;53.130;8.244;2024-03-29T12:56:35;1.60;;;1.50;;
10166;SDS011;62970;53.130;8.244;2024-03-29T12:59:02;2.30;;;1.40;;
10166;SDS011;62970;53.130;8.244;2024-03-29T13:01:28;1.63;;;1.53;;
10166;SDS011;62970;53.130;8.244;2024-03-29T13:03:55;2.13;;;1.73;;
10166;SDS011;62970;53.130;8.244;2024-03-29T13:06:21;2.03;;;1.43;;
10166;SDS011;62970;53.130;8.244;2024-03-29T13:08:48;1.97;;;1.33;;
10166;SDS011;62970;53.130;8.244;2024-03-29T13:11:15;1.40;;;1.27;;
10166;SDS011;62970;53.130;8.244;2024-03-29T13:13:44;2.17;;;1.47;;
10166;SDS011;62970;53.130;8.244;2024-03-29T13:16:10;1.67;;;1.53;;
10166;SDS011;62970;53.130;8.244;2024-03-29T13:18:36;1.70;;;1.30;;
10166;SDS011;62970;53.130;8.244;2024-03-29T13:21:03;3.20;;;1.97;;
10166;SDS011;62970;53.130;8.244;2024-03-29T13:23:30;2.50;;;2.10;;
10166;SDS011;62970;53.130;8.244;2024-03-29T13:25:57;2.37;;;2.03;;
10166;SDS011;62970;53.130;8.244;2024-03-29T13:28:23;3.40;;;2.70;;
10166;SDS011;62970;53.130;8.244;2024-03-29T13:30:52;2.73;;;2.37;;
10166;SDS011;62970;53.130;8.244;2024-03-29T13:33:18;2.30;;;2.10;;
10166;SDS011;62970;53.130;8.244;2024-03-29T13:35:45;1.97;;;1.77;;
10166;SDS011;62970;53.130;8.244;2024-03-29T13:38:11;2.23;;;1.77;;
10166;SDS011;62970;53.130;8.244;2024-03-29T13:40:38;2.17;;;1.97;;
10166;SDS011;62970;53.130;8.244;2024-03-29T13:43:05;1.93;;;1.80;;
10166;SDS011;62970;53.130;8.244;2024-03-29T13:45:32;2.40;;;2.20;;
10166;SDS011;62970;53.130;8.244;2024-03-29T13:48:01;2.43;;;2.23;;
10166;SDS011;62970;53.130;8.244;2024-03-29T13:50:27;2.10;;;2.00;;
10166;SDS011;62970;53.130;8.244;2024-03-29T13:52:54;2.20;;;2.10;;
10166;SDS011;62970;53.130;8.244;2024-03-29T13:55:20;2.43;;;2.17;;
10166;SDS011;62970;53.130;8.244;2024-03-29T13:57:47;2.20;;;2.10;;
10166;SDS011;62970;53.130;8.244;2024-03-29T14:00:14;2.30;;;2.10;;
10166;SDS011;62970;53.130;8.244;2024-03-29T14:02:41;2.00;;;1.90;;
10166;SDS011;62970;53.130;8.244;2024-03-29T14:05:10;2.50;;;2.30;;
10166;SDS011;62970;53.130;8.244;2024-03-29T14:07:37;1.97;;;1.70;;
10166;SDS011;62970;53.130;8.244;2024-03-29T14:10:04;2.17;;;1.97;;
10166;SDS011;62970;53.130;8.244;2024-03-29T14:12:32;1.60;;;1.50;;
10166;SDS011;62970;53.130;8.244;2024-03-29T14:14:59;1.80;;;1.70;;
10166;SDS011;62970;53.130;8.244;2024-03-29T14:17:25;2.23;;;1.53;;
10166;SDS011;62970;53.130;8.244;2024-03-29T14:19:51;2.03;;;1.83;;
10166;SDS011;62970;53.130;8.244;2024-03-29T14:22:20;1.53;;;1.43;;
10166;SDS011;62970;53.130;8.244;2024-03-29T14:24:47;2.00;;;1.70;;
10166;SDS011;62970;53.130;8.244;2024-03-29T14:27:13;1.50;;;1.40;;
10166;SDS011;62970;53.130;8.244;2024-03-29T14:29:40;1.60;;;1.50;;
10166;SDS011;62970;53.130;8.244;2024-03-29T14:32:06;1.30;;;1.20;;
10166;SDS011;62970;53.130;8.244;2024-03-29T14:34:33;1.53;;;1.20;;
10166;SDS011;62970;53.130;8.244;2024-03-29T14:37:00;1.13;;;1.03;;
10166;SDS011;62970;53.130;8.244;2024-03-29T14:39:29;1.20;;;1.10;;
10166;SDS011;62970;53.130;8.244;2024-03-29T14:41:55;1.40;;;1.30;;
10166;SDS011;62970;53.130;8.244;2024-03-29T14:44:21;1.23;;;1.13;;
10166;SDS011;62970;53.130;8.244;2024-03-29T14:46:48;2.07;;;1.63;;
10166;SDS011;62970;53.130;8.244;2024-03-29T14:49:14;2.10;;;1.90;;
10166;SDS011;62970;53.130;8.244;2024-03-29T14:51:41;2.27;;;1.60;;